Time;durP1;ratioP1;P1;durP2;ratioP2;P2;SDS_P1;SDS_P2;PMS_P1;PMS_P2;Temp;Humidity;BMP_temperature;BMP_pressure;BME280_temperature;BME280_humidity;BME280_pressure;Samples;Min_cycle;Max_cycle;Signal;HPM_P1;HPM_P2
2022/12/23 00:01:40;;;;;;;57.47;26.10;;;7.30;99.90;;;;;;5051256;28;20044;-74
2022/12/23 00:04:08;;;;;;;56.45;26.52;;;7.00;99.90;;;;;;5064877;28;20045;-75
2022/12/23 00:06:34;;;;;;;54.38;26.27;;;7.60;99.90;;;;;;5049672;28;20120;-75
2022/12/23 00:08:59;;;;;;;54.25;26.10;;;7.00;99.90;;;;;;5030363;28;20132;-73
2022/12/23 00:11:27;;;;;;;59.03;25.40;;;7.00;99.90;;;;;;5020309;28;20052;-75
2022/12/23 00:16:37;;;;;;;52.15;23.20;;;7.00;99.90;;;;;;5040792;28;20045;-75
2022/12/23 00:19:03;;;;;;;58.25;25.80;;;7.00;99.90;;;;;;5054770;28;20037;-73
2022/12/23 00:21:29;;;;;;;62.38;26.02;;;7.00;99.90;;;;;;5059859;28;20033;-75
2022/12/23 00:23:55;;;;;;;61.75;25.88;;;7.00;99.90;;;;;;5072494;28;20033;-75
2022/12/23 00:26:23;;;;;;;52.60;24.88;;;7.00;99.90;;;;;;5063293;28;20471;-75
2022/12/23 00:28:50;;;;;;;55.90;24.67;;;7.00;99.90;;;;;;5045050;28;20037;-74
2022/12/23 00:31:17;;;;;;;58.50;25.45;;;7.00;99.90;;;;;;5051129;28;20056;-75
2022/12/23 00:33:52;;;;;;;61.03;26.23;;;7.00;99.90;;;;;;5029217;28;20044;-75
2022/12/23 00:36:22;;;;;;;61.50;26.42;;;7.00;99.90;;;;;;5047505;28;20495;-74
2022/12/23 00:44:17;;;;;;;56.58;24.80;;;7.00;99.90;;;;;;5031369;28;20053;-76
2022/12/23 00:46:43;;;;;;;72.88;26.98;;;7.00;99.90;;;;;;5029843;28;20102;-76
2022/12/23 00:52:00;;;;;;;63.90;26.58;;;7.00;99.90;;;;;;5043555;28;20049;-73
2022/12/23 00:54:26;;;;;;;64.05;26.48;;;6.90;99.90;;;;;;5040737;28;20505;-75
2022/12/23 00:56:52;;;;;;;62.83;25.33;;;6.90;99.90;;;;;;5050757;28;20029;-76
2022/12/23 00:59:18;;;;;;;73.35;27.73;;;7.10;99.90;;;;;;5050839;28;20040;-75
2022/12/23 01:07:13;;;;;;;71.82;26.95;;;6.90;99.90;;;;;;5047590;28;20068;-75
2022/12/23 01:09:38;;;;;;;59.47;25.88;;;6.90;99.90;;;;;;5050155;28;20606;-75
2022/12/23 01:12:04;;;;;;;88.75;29.65;;;6.90;99.90;;;;;;5041938;28;20128;-75
2022/12/23 01:14:30;;;;;;;70.20;27.15;;;6.90;99.90;;;;;;5012587;28;20068;-74
2022/12/23 01:16:56;;;;;;;96.70;29.48;;;6.90;99.90;;;;;;5029863;28;20128;-76
2022/12/23 01:19:22;;;;;;;63.92;27.15;;;6.90;99.90;;;;;;5026131;28;20179;-74
2022/12/23 01:21:47;;;;;;;61.45;26.02;;;6.90;99.90;;;;;;5046622;28;20045;-75
2022/12/23 01:24:13;;;;;;;63.10;26.13;;;6.90;99.90;;;;;;5048646;28;20049;-74
2022/12/23 01:26:39;;;;;;;56.70;25.30;;;6.90;99.90;;;;;;5011605;28;20474;-75
2022/12/23 01:29:05;;;;;;;87.90;29.23;;;6.70;99.90;;;;;;5043000;28;20041;-73
2022/12/23 01:31:30;;;;;;;66.43;26.33;;;6.90;99.90;;;;;;5031382;28;20096;-74
2022/12/23 01:33:56;;;;;;;61.28;26.17;;;6.90;99.90;;;;;;5017101;28;20114;-75
2022/12/23 01:36:22;;;;;;;62.28;25.48;;;6.90;99.90;;;;;;5053160;28;20056;-75
2022/12/23 01:38:48;;;;;;;86.50;28.40;;;6.90;99.90;;;;;;5050097;28;20032;-75
2022/12/23 01:44:48;;;;;;;63.75;25.50;;;6.90;99.90;;;;;;5049556;28;20049;-75
2022/12/23 01:47:25;;;;;;;51.47;23.65;;;6.90;99.90;;;;;;5035127;28;20048;-74
2022/12/23 01:50:00;;;;;;;67.35;25.48;;;6.80;99.90;;;;;;5032902;28;20064;-74
2022/12/23 01:52:30;;;;;;;69.15;26.08;;;6.80;99.90;;;;;;5053789;28;20033;-74
2022/12/23 01:54:56;;;;;;;64.82;27.23;;;6.80;99.90;;;;;;5050193;28;20047;-74
2022/12/23 01:57:23;;;;;;;64.90;26.58;;;6.90;99.90;;;;;;5014572;28;20038;-75
2022/12/23 02:05:34;;;;;;;64.28;26.05;;;6.90;99.90;;;;;;5046332;28;20510;-75
2022/12/23 02:11:16;;;;;;;57.88;25.40;;;6.90;99.90;;;;;;5043276;28;20044;-75
2022/12/23 02:16:58;;;;;;;64.70;26.52;;;6.90;99.90;;;;;;5046685;28;20037;-74
2022/12/23 02:20:08;;;;;;;80.22;28.52;;;6.90;99.90;;;;;;5054533;28;20048;-74
2022/12/23 02:22:56;;;;;;;62.17;25.45;;;6.90;99.90;;;;;;5015498;28;20048;-74
2022/12/23 02:25:42;;;;;;;59.08;24.60;;;6.90;99.90;;;;;;5047011;28;20045;-74
2022/12/23 02:28:45;;;;;;;83.10;27.00;;;6.80;99.90;;;;;;5042835;28;20049;-75
2022/12/23 02:31:22;;;;;;;56.92;23.27;;;6.80;99.90;;;;;;5047913;28;20041;-75
2022/12/23 02:34:00;;;;;;;61.63;24.65;;;6.80;99.90;;;;;;5047900;28;20045;-75
2022/12/23 02:36:58;;;;;;;61.33;26.10;;;6.80;99.90;;;;;;5048168;28;20249;-74
2022/12/23 02:39:24;;;;;;;72.53;26.70;;;6.80;99.90;;;;;;5022485;28;20087;-74
2022/12/23 02:42:00;;;;;;;66.45;26.65;;;6.70;99.90;;;;;;5042170;28;20069;-74
2022/12/23 02:44:39;;;;;;;58.00;25.23;;;6.70;99.90;;;;;;5041870;28;20032;-74
2022/12/23 02:47:14;;;;;;;70.65;27.25;;;6.70;99.90;;;;;;5045633;28;20033;-75
2022/12/23 02:49:46;;;;;;;58.40;26.45;;;6.90;99.90;;;;;;5044996;28;20094;-75
2022/12/23 02:52:14;;;;;;;52.23;24.00;;;6.70;99.90;;;;;;5049126;28;20048;-73
2022/12/23 02:54:45;;;;;;;69.93;26.90;;;6.70;99.90;;;;;;5045245;28;20119;-75
2022/12/23 02:57:13;;;;;;;69.25;26.23;;;6.70;99.90;;;;;;5032265;28;20099;-76
2022/12/23 02:59:44;;;;;;;73.03;28.27;;;6.70;99.90;;;;;;5032178;28;20123;-75
2022/12/23 03:02:10;;;;;;;58.65;27.13;;;6.80;99.90;;;;;;5047067;28;20033;-75
2022/12/23 03:04:36;;;;;;;73.40;27.40;;;6.70;99.90;;;;;;5029843;28;20383;-76
2022/12/23 03:07:03;;;;;;;58.75;25.65;;;6.80;99.90;;;;;;5047879;28;20045;-75
2022/12/23 03:10:07;;;;;;;63.95;26.65;;;6.80;99.90;;;;;;5046971;28;20060;-74
2022/12/23 03:12:44;;;;;;;80.43;26.50;;;6.80;99.90;;;;;;5031480;28;20044;-74
2022/12/23 03:15:36;;;;;;;68.50;27.60;;;6.80;99.90;;;;;;5058234;28;20040;-74
2022/12/23 03:18:15;;;;;;;61.35;25.17;;;6.80;99.90;;;;;;5037961;28;20119;-74
2022/12/23 03:20:56;;;;;;;86.63;27.88;;;6.80;99.90;;;;;;5047480;28;20041;-75
2022/12/23 03:23:39;;;;;;;74.43;27.00;;;6.80;99.90;;;;;;5045973;28;20076;-74
2022/12/23 03:26:13;;;;;;;;;;;6.80;99.90;;;;;;5029643;28;20089;-75
2022/12/23 03:28:46;;;;;;;68.65;25.50;;;6.80;99.90;;;;;;5047358;28;19923;-76
2022/12/23 03:31:19;;;;;;;67.25;25.63;;;6.80;99.90;;;;;;5045716;28;20097;-75
2022/12/23 03:33:50;;;;;;;57.35;24.25;;;6.80;99.90;;;;;;5049980;28;20059;-75
2022/12/23 03:36:33;;;;;;;62.35;25.40;;;6.90;99.90;;;;;;5018500;28;20125;-75
2022/12/23 03:39:02;;;;;;;68.75;24.55;;;6.90;99.90;;;;;;5042048;28;20064;-74
2022/12/23 03:41:34;;;;;;;60.55;24.25;;;6.90;99.90;;;;;;5048731;28;20132;-76
2022/12/23 03:44:15;;;;;;;66.78;24.75;;;6.90;99.90;;;;;;5045354;28;20063;-75
2022/12/23 03:46:48;;;;;;;58.13;22.50;;;6.90;99.90;;;;;;5044716;28;20072;-73
2022/12/23 03:49:21;;;;;;;65.93;24.02;;;6.90;99.90;;;;;;5017596;28;20087;-75
2022/12/23 03:51:59;;;;;;;71.30;25.48;;;6.90;99.90;;;;;;5027852;28;20048;-74
2022/12/23 03:54:31;;;;;;;59.75;22.73;;;6.90;99.90;;;;;;5023661;28;20037;-74
2022/12/23 03:57:03;;;;;;;52.53;20.37;;;6.90;99.90;;;;;;5030042;28;20049;-74
2022/12/23 03:59:52;;;;;;;53.03;20.70;;;6.90;99.90;;;;;;5026273;28;20119;-74
2022/12/23 04:02:34;;;;;;;63.53;21.80;;;6.90;99.90;;;;;;5027241;28;20049;-73
2022/12/23 04:05:22;;;;;;;54.85;21.35;;;6.60;99.90;;;;;;5035154;28;20055;-75
2022/12/23 04:08:00;;;;;;;53.90;20.13;;;6.90;99.90;;;;;;5044602;28;20045;-75
2022/12/23 04:10:27;;;;;;;62.15;20.80;;;6.80;99.90;;;;;;5040173;28;20128;-74
2022/12/23 04:12:56;;;;;;;53.97;19.65;;;6.90;99.90;;;;;;5030706;28;20037;-76
2022/12/23 04:15:24;;;;;;;49.20;19.33;;;6.80;99.90;;;;;;5030705;28;20073;-74
2022/12/23 04:17:51;;;;;;;52.70;19.17;;;6.80;99.90;;;;;;5035677;28;20037;-75
2022/12/23 04:20:17;;;;;;;55.50;20.45;;;6.80;99.90;;;;;;5040023;28;20045;-74
2022/12/23 04:22:43;;;;;;;51.80;19.50;;;6.80;99.90;;;;;;5048403;28;20037;-75
2022/12/23 04:25:14;;;;;;;54.53;20.13;;;6.80;99.90;;;;;;5028776;28;20525;-74
2022/12/23 04:27:40;;;;;;;51.78;18.73;;;6.80;99.90;;;;;;5049940;28;20037;-74
2022/12/23 04:30:07;;;;;;;56.47;20.48;;;6.80;99.90;;;;;;5033461;28;20033;-75
2022/12/23 04:32:33;;;;;;;55.78;19.70;;;7.00;99.90;;;;;;5035806;28;20032;-75
2022/12/23 04:34:59;;;;;;;51.88;18.67;;;6.80;99.90;;;;;;5052155;28;20433;-73
2022/12/23 04:37:24;;;;;;;51.05;19.45;;;6.80;99.90;;;;;;5048669;28;20500;-74
2022/12/23 04:39:50;;;;;;;50.83;18.65;;;6.80;99.90;;;;;;5035432;28;20195;-75
2022/12/23 04:42:16;;;;;;;46.92;18.23;;;6.80;99.90;;;;;;5042607;28;20056;-74
2022/12/23 04:44:41;;;;;;;46.22;17.98;;;5.80;99.90;;;;;;5050622;28;20131;-75
2022/12/23 04:47:07;;;;;;;51.10;19.52;;;;;;;;;;5018297;28;20040;-74
2022/12/23 04:49:33;;;;;;;51.45;17.92;;;6.80;99.90;;;;;;5046537;28;20040;-76
2022/12/23 04:52:01;;;;;;;48.47;18.30;;;6.90;99.90;;;;;;5051271;28;20483;-76
2022/12/23 04:54:27;;;;;;;52.95;17.58;;;5.70;99.90;;;;;;5045773;28;20215;-74
2022/12/23 04:56:53;;;;;;;46.40;17.63;;;6.80;99.90;;;;;;5034256;28;20037;-74
2022/12/23 04:59:18;;;;;;;49.30;17.58;;;7.00;99.90;;;;;;5049649;28;20036;-75
2022/12/23 05:01:44;;;;;;;45.22;16.27;;;6.80;99.90;;;;;;5046998;28;20464;-74
2022/12/23 05:04:10;;;;;;;40.55;16.38;;;6.90;99.90;;;;;;5012011;28;20047;-77
2022/12/23 05:06:36;;;;;;;42.30;15.57;;;6.70;99.90;;;;;;5027983;28;20406;-73
2022/12/23 05:09:03;;;;;;;42.35;15.07;;;6.70;99.90;;;;;;5046508;28;20056;-75
2022/12/23 05:11:29;;;;;;;61.20;16.80;;;6.70;99.90;;;;;;5048215;28;20052;-75
2022/12/23 05:13:55;;;;;;;42.80;15.75;;;6.60;99.90;;;;;;5047406;28;20041;-75
2022/12/23 05:16:21;;;;;;;45.00;16.70;;;6.60;99.90;;;;;;5033555;28;20067;-74
2022/12/23 05:18:46;;;;;;;47.45;16.98;;;6.60;99.90;;;;;;5046236;28;20037;-73
2022/12/23 05:21:12;;;;;;;43.22;16.95;;;6.60;99.90;;;;;;5037162;28;20049;-74
2022/12/23 05:23:38;;;;;;;42.83;16.83;;;6.60;99.90;;;;;;5048586;28;20040;-75
2022/12/23 05:26:04;;;;;;;58.92;19.27;;;6.70;99.90;;;;;;5056164;28;20064;-74
2022/12/23 05:28:30;;;;;;;47.45;17.85;;;6.50;99.90;;;;;;5028830;28;20037;-74
2022/12/23 05:31:01;;;;;;;58.75;18.92;;;6.50;99.90;;;;;;5031772;28;20071;-75
2022/12/23 05:33:28;;;;;;;43.40;17.27;;;6.50;99.90;;;;;;5028166;28;20033;-75
2022/12/23 05:35:54;;;;;;;52.33;18.55;;;6.60;99.90;;;;;;5048607;28;20508;-75
2022/12/23 05:38:20;;;;;;;57.13;19.70;;;6.50;99.90;;;;;;5043585;28;20083;-75
2022/12/23 05:40:46;;;;;;;53.15;19.23;;;6.50;99.90;;;;;;5049826;28;20474;-75
2022/12/23 05:43:12;;;;;;;53.28;19.40;;;6.50;99.90;;;;;;5028268;28;20157;-73
2022/12/23 05:45:38;;;;;;;57.63;19.45;;;6.50;99.90;;;;;;5048653;28;20117;-75
2022/12/23 05:48:04;;;;;;;50.17;19.58;;;6.70;99.90;;;;;;5056537;28;20090;-75
2022/12/23 05:50:30;;;;;;;51.08;19.30;;;6.50;99.90;;;;;;5049549;28;20041;-75
2022/12/23 05:52:56;;;;;;;69.88;19.98;;;6.40;99.90;;;;;;5033283;28;20099;-73
2022/12/23 05:55:23;;;;;;;65.88;22.10;;;6.50;99.90;;;;;;5049006;28;20032;-73
2022/12/23 05:57:49;;;;;;;57.83;20.95;;;6.40;99.90;;;;;;5015203;28;20041;-75
2022/12/23 06:00:16;;;;;;;60.63;21.85;;;6.40;99.90;;;;;;5010204;28;20036;-74
2022/12/23 06:02:41;;;;;;;78.82;22.38;;;6.40;99.90;;;;;;5057467;28;20123;-73
2022/12/23 06:05:11;;;;;;;81.15;23.65;;;6.40;99.90;;;;;;5045120;28;20120;-75
2022/12/23 06:07:37;;;;;;;66.05;22.60;;;6.40;99.90;;;;;;5030581;28;20369;-74
2022/12/23 06:10:05;;;;;;;58.97;21.38;;;6.40;99.90;;;;;;5035092;28;20049;-75
2022/12/23 06:12:31;;;;;;;63.75;22.13;;;6.40;99.90;;;;;;5025831;28;20465;-74
2022/12/23 06:14:57;;;;;;;54.00;21.83;;;6.60;99.90;;;;;;5046675;28;20084;-75
2022/12/23 06:17:22;;;;;;;56.85;21.08;;;6.40;99.90;;;;;;5042234;28;20040;-76
2022/12/23 06:19:48;;;;;;;104.10;23.20;;;6.40;99.90;;;;;;5026456;28;20041;-75
2022/12/23 06:22:14;;;;;;;64.07;21.63;;;6.30;99.90;;;;;;5047326;28;20490;-75
2022/12/23 06:24:40;;;;;;;63.45;21.92;;;6.30;99.90;;;;;;5034021;28;20037;-76
2022/12/23 06:27:06;;;;;;;71.10;21.25;;;6.30;99.90;;;;;;5044551;28;20166;-74
2022/12/23 06:29:34;;;;;;;75.63;21.15;;;6.30;99.90;;;;;;5029260;28;20577;-75
2022/12/23 06:32:00;;;;;;;107.55;21.65;;;6.20;99.90;;;;;;5061590;28;20033;-75
2022/12/23 06:34:26;;;;;;;128.95;20.73;;;6.20;99.90;;;;;;5043574;28;20506;-73
2022/12/23 06:36:52;;;;;;;213.68;23.80;;;6.20;99.90;;;;;;5040128;28;20068;-75
2022/12/23 06:39:17;;;;;;;247.82;24.65;;;6.20;99.90;;;;;;5043694;28;20105;-76
2022/12/23 06:41:49;;;;;;;231.40;22.15;;;6.10;99.90;;;;;;5043931;28;20128;-76
2022/12/23 06:44:14;;;;;;;81.68;18.40;;;6.40;99.90;;;;;;5046327;28;20451;-76
2022/12/23 06:46:40;;;;;;;140.93;19.60;;;6.10;99.90;;;;;;5048982;28;20040;-76
2022/12/23 06:49:06;;;;;;;221.93;21.73;;;6.10;99.90;;;;;;5027916;28;20043;-74
2022/12/23 06:51:32;;;;;;;84.43;18.10;;;6.10;99.90;;;;;;5049140;28;20045;-76
2022/12/23 06:53:59;;;;;;;126.38;18.17;;;6.20;99.90;;;;;;5039629;28;20056;-75
2022/12/23 06:56:25;;;;;;;56.90;17.75;;;6.20;99.90;;;;;;5048648;28;20502;-76
2022/12/23 06:58:54;;;;;;;177.38;20.38;;;6.10;99.90;;;;;;5048129;28;20055;-74
2022/12/23 07:01:20;;;;;;;55.65;17.23;;;6.20;99.90;;;;;;5028054;28;20025;-74
2022/12/23 07:03:46;;;;;;;50.75;17.17;;;6.20;99.90;;;;;;5049437;28;20045;-74
2022/12/23 07:06:12;;;;;;;47.10;18.25;;;6.20;99.90;;;;;;5047404;28;20041;-76
2022/12/23 07:08:38;;;;;;;79.25;20.75;;;6.20;99.90;;;;;;5032491;28;20102;-75
2022/12/23 07:11:04;;;;;;;89.07;20.88;;;6.20;99.90;;;;;;5044517;28;20075;-75
2022/12/23 07:13:31;;;;;;;60.97;19.83;;;6.20;99.90;;;;;;5046828;28;20506;-75
2022/12/23 07:15:58;;;;;;;66.65;20.05;;;6.20;99.90;;;;;;5047703;28;20418;-75
2022/12/23 07:18:26;;;;;;;77.65;19.77;;;6.20;99.90;;;;;;5023775;28;20070;-76
2022/12/23 07:20:52;;;;;;;88.07;20.67;;;6.20;99.90;;;;;;5053723;28;20090;-75
2022/12/23 07:23:21;;;;;;;52.13;18.42;;;6.80;99.90;;;;;;5044139;28;20082;-74
2022/12/23 07:25:46;;;;;;;82.38;20.15;;;6.50;99.90;;;;;;5013704;28;20052;-75
2022/12/23 07:28:12;;;;;;;80.25;20.25;;;6.20;99.90;;;;;;5024837;28;20420;-75
2022/12/23 07:30:41;;;;;;;83.03;19.48;;;6.30;99.90;;;;;;5039060;28;20055;-76
2022/12/23 07:33:07;;;;;;;50.20;17.38;;;6.20;99.90;;;;;;5040296;28;20198;-75
2022/12/23 07:35:32;;;;;;;58.22;19.75;;;6.30;99.90;;;;;;5037554;28;20029;-75
2022/12/23 07:37:58;;;;;;;79.03;19.48;;;6.30;99.90;;;;;;5052589;28;21458;-75
2022/12/23 07:40:27;;;;;;;90.15;19.90;;;6.20;99.90;;;;;;5033753;28;20358;-76
2022/12/23 07:42:55;;;;;;;53.80;18.60;;;6.20;99.90;;;;;;5038148;28;20051;-75
2022/12/23 07:45:26;;;;;;;60.10;18.75;;;6.30;99.90;;;;;;5054827;28;20025;-75
2022/12/23 07:47:59;;;;;;;62.60;17.50;;;6.30;99.90;;;;;;5053722;28;20029;-76
2022/12/23 07:50:26;;;;;;;48.03;16.73;;;7.50;99.90;;;;;;5043797;28;20060;-74
2022/12/23 07:52:53;;;;;;;59.35;19.08;;;6.30;99.90;;;;;;5036331;28;20536;-75
2022/12/23 07:55:19;;;;;;;47.20;17.08;;;6.30;99.90;;;;;;5068840;28;20102;-76
2022/12/23 07:57:57;;;;;;;60.50;19.17;;;6.30;99.90;;;;;;5066071;28;20036;-75
2022/12/23 08:00:22;;;;;;;52.42;17.95;;;8.20;99.90;;;;;;5053201;28;20290;-75
2022/12/23 08:02:53;;;;;;;70.50;18.23;;;6.30;99.90;;;;;;5023809;28;20047;-75
2022/12/23 08:05:22;;;;;;;46.85;18.20;;;6.30;99.90;;;;;;5038037;28;20203;-76
2022/12/23 08:07:51;;;;;;;55.20;18.35;;;6.50;99.90;;;;;;5046583;28;20053;-75
2022/12/23 08:10:18;;;;;;;48.15;18.45;;;6.20;99.90;;;;;;5047996;28;20068;-76
2022/12/23 08:12:45;;;;;;;55.67;19.27;;;6.20;99.90;;;;;;5042264;28;20056;-75
2022/12/23 08:15:11;;;;;;;50.25;19.08;;;6.20;99.90;;;;;;5054692;28;20186;-76
2022/12/23 08:17:36;;;;;;;54.72;19.00;;;6.20;99.90;;;;;;5055402;28;20025;-74
2022/12/23 08:20:02;;;;;;;72.10;19.20;;;6.20;99.90;;;;;;5055498;28;20036;-74
2022/12/23 08:22:30;;;;;;;49.78;18.67;;;6.20;99.90;;;;;;5051095;28;20045;-75
2022/12/23 08:24:56;;;;;;;52.45;18.42;;;6.30;99.90;;;;;;5059918;28;20029;-75
2022/12/23 08:27:22;;;;;;;55.13;18.48;;;6.30;99.90;;;;;;5049798;28;20055;-75
2022/12/23 08:29:47;;;;;;;52.20;18.70;;;6.30;99.90;;;;;;5047478;28;20408;-74
2022/12/23 08:32:13;;;;;;;51.30;17.98;;;6.30;99.90;;;;;;5037650;28;20060;-74
2022/12/23 08:34:42;;;;;;;56.92;19.17;;;6.30;99.90;;;;;;5032975;28;20132;-75
2022/12/23 08:37:08;;;;;;;49.85;17.55;;;6.30;99.90;;;;;;5031579;28;20052;-75
2022/12/23 08:39:34;;;;;;;122.25;21.55;;;6.30;99.90;;;;;;5054462;28;20048;-75
2022/12/23 08:41:59;;;;;;;55.72;18.95;;;6.30;99.90;;;;;;5035008;28;20068;-75
2022/12/23 08:44:28;;;;;;;55.35;18.70;;;6.30;99.90;;;;;;5038464;28;20060;-74
2022/12/23 08:46:54;;;;;;;118.20;20.05;;;7.30;99.90;;;;;;5018210;28;20085;-75
2022/12/23 08:49:20;;;;;;;37.92;16.23;;;6.40;99.90;;;;;;5038365;28;20297;-75
2022/12/23 08:51:46;;;;;;;126.35;21.45;;;6.20;99.90;;;;;;5050658;28;20045;-77
2022/12/23 08:54:12;;;;;;;42.67;15.13;;;6.20;99.90;;;;;;5046900;28;20104;-75
2022/12/23 08:56:40;;;;;;;34.08;14.20;;;6.20;99.90;;;;;;5051179;28;20036;-75
2022/12/23 08:59:10;;;;;;;36.10;13.93;;;6.20;99.90;;;;;;5067738;28;20106;-74
2022/12/23 09:01:36;;;;;;;74.43;14.27;;;6.10;99.90;;;;;;5052986;28;20052;-75
2022/12/23 09:04:03;;;;;;;52.78;13.45;;;6.10;99.90;;;;;;5033767;28;20096;-76
2022/12/23 09:06:34;;;;;;;29.00;12.32;;;6.10;99.90;;;;;;5050913;28;20048;-74
2022/12/23 09:09:02;;;;;;;36.72;13.98;;;6.10;99.90;;;;;;5048265;28;20115;-75
2022/12/23 09:11:28;;;;;;;41.42;15.85;;;6.10;99.90;;;;;;5050172;28;20278;-75
2022/12/23 09:13:59;;;;;;;43.95;16.48;;;6.20;99.90;;;;;;5035312;28;20043;-76
2022/12/23 09:16:24;;;;;;;40.05;16.40;;;6.30;99.90;;;;;;5056204;28;20033;-75
2022/12/23 09:18:50;;;;;;;43.42;17.23;;;6.30;99.90;;;;;;5036200;28;20048;-75
2022/12/23 09:21:21;;;;;;;70.40;18.52;;;7.50;99.90;;;;;;5035142;28;20064;-75
2022/12/23 09:23:47;;;;;;;58.22;18.23;;;6.40;99.90;;;;;;5040783;28;20357;-74
2022/12/23 09:26:25;;;;;;;44.85;16.55;;;6.40;99.90;;;;;;5053638;28;20055;-75
2022/12/23 09:28:51;;;;;;;79.25;16.92;;;6.40;99.90;;;;;;5071642;28;20137;-75
2022/12/23 09:31:18;;;;;;;77.78;16.98;;;6.50;99.90;;;;;;5053140;28;20036;-76
2022/12/23 09:33:49;;;;;;;77.25;16.35;;;6.40;99.90;;;;;;5063905;28;20025;-75
2022/12/23 09:36:15;;;;;;;70.13;16.15;;;6.40;99.90;;;;;;5055292;28;20044;-76
2022/12/23 09:38:41;;;;;;;53.08;16.05;;;6.40;99.90;;;;;;5055395;28;20046;-76
2022/12/23 09:41:15;;;;;;;52.78;15.82;;;6.40;99.90;;;;;;5055165;28;20251;-75
2022/12/23 09:43:53;;;;;;;36.88;13.27;;;6.40;99.90;;;;;;5042714;28;20075;-74
2022/12/23 09:46:22;;;;;;;63.17;14.80;;;6.50;99.90;;;;;;5073094;28;20029;-76
2022/12/23 09:49:02;;;;;;;42.65;14.25;;;6.50;99.90;;;;;;5063311;28;20068;-75
2022/12/23 09:51:29;;;;;;;58.17;14.93;;;6.50;99.90;;;;;;5053416;28;20145;-75
2022/12/23 09:54:20;;;;;;;84.00;16.23;;;6.60;99.90;;;;;;5059020;28;20041;-75
2022/12/23 09:57:06;;;;;;;31.05;12.27;;;6.60;99.90;;;;;;5053388;28;20040;-75
2022/12/23 09:59:57;;;;;;;37.70;13.45;;;6.60;99.90;;;;;;5039293;28;20033;-74
2022/12/23 10:02:36;;;;;;;76.45;13.93;;;6.40;99.90;;;;;;5058474;28;20044;-75
2022/12/23 10:05:22;;;;;;;150.50;15.80;;;6.70;99.90;;;;;;5074150;28;20037;-75
2022/12/23 10:08:22;;;;;;;43.13;11.38;;;6.70;99.90;;;;;;5066946;28;20035;-75
2022/12/23 10:10:53;;;;;;;190.38;16.25;;;6.70;99.90;;;;;;5054968;28;20036;-79
2022/12/23 10:13:26;;;;;;;108.35;13.80;;;6.70;99.90;;;;;;5059885;28;20067;-76
2022/12/23 10:16:00;;;;;;;55.33;11.70;;;6.70;99.90;;;;;;5045195;28;20294;-75
2022/12/23 10:18:44;;;;;;;93.30;12.95;;;6.70;99.90;;;;;;5060712;28;20090;-75
2022/12/23 10:21:23;;;;;;;108.70;13.15;;;6.70;99.90;;;;;;5068883;28;20101;-75
2022/12/23 10:23:51;;;;;;;43.33;10.90;;;6.70;99.90;;;;;;5041440;28;20056;-75
2022/12/23 10:26:31;;;;;;;39.35;10.80;;;6.70;99.90;;;;;;5040653;28;20049;-74
2022/12/23 10:29:16;;;;;;;45.45;11.25;;;6.80;99.90;;;;;;5038751;28;20194;-77
2022/12/23 10:32:01;;;;;;;37.55;11.18;;;;;;;;;;5071164;28;20251;-76
2022/12/23 10:34:53;;;;;;;174.50;15.13;;;6.80;99.90;;;;;;5056388;28;20041;-76
2022/12/23 10:37:28;;;;;;;49.35;11.77;;;6.80;99.90;;;;;;5053943;28;20041;-75
2022/12/23 10:40:06;;;;;;;;;;;6.90;99.90;;;;;;5055652;28;20033;-73
2022/12/23 10:42:37;;;;;;;105.55;14.90;;;6.90;99.90;;;;;;5053961;28;19962;-75
2022/12/23 10:45:23;;;;;;;78.65;12.82;;;7.00;99.90;;;;;;5039304;28;20112;-76
2022/12/23 10:48:02;;;;;;;59.50;12.50;;;6.90;99.90;;;;;;5054508;28;20091;-75
2022/12/23 10:50:47;;;;;;;37.22;10.32;;;6.90;99.90;;;;;;5053933;28;20040;-74
2022/12/23 10:53:26;;;;;;;69.22;12.13;;;6.90;99.90;;;;;;5052348;28;20044;-74
2022/12/23 10:55:52;;;;;;;23.00;9.65;;;6.90;99.90;;;;;;5053067;28;20029;-76
2022/12/23 10:58:19;;;;;;;57.55;13.02;;;7.00;99.90;;;;;;5070177;28;20068;-76
2022/12/23 11:00:51;;;;;;;74.50;13.20;;;7.00;99.90;;;;;;5052225;28;20033;-75
2022/12/23 11:03:27;;;;;;;21.23;10.48;;;7.00;99.90;;;;;;5053509;28;20312;-76
2022/12/23 11:05:57;;;;;;;30.67;11.10;;;7.00;99.90;;;;;;5056114;28;20266;-75
2022/12/23 11:08:26;;;;;;;33.80;10.57;;;7.00;99.90;;;;;;5053360;28;20063;-75
2022/12/23 11:10:53;;;;;;;33.85;11.07;;;7.00;99.90;;;;;;5050900;28;20265;-76
2022/12/23 11:13:35;;;;;;;50.92;11.85;;;7.00;99.90;;;;;;5054857;28;20045;-76
2022/12/23 11:16:18;;;;;;;28.13;10.75;;;7.00;99.90;;;;;;5067872;28;20833;-75
2022/12/23 11:19:12;;;;;;;31.13;10.95;;;7.00;99.90;;;;;;5047278;28;20291;-75
2022/12/23 11:21:55;;;;;;;24.92;10.57;;;7.00;99.90;;;;;;5056212;28;20295;-74
2022/12/23 11:24:23;;;;;;;27.77;10.57;;;7.00;99.90;;;;;;5033151;28;20068;-75
2022/12/23 11:26:58;;;;;;;32.72;11.65;;;7.00;99.90;;;;;;5055238;28;20096;-75
2022/12/23 11:29:38;;;;;;;23.83;11.32;;;7.10;99.90;;;;;;5070439;28;20141;-75
2022/12/23 11:32:15;;;;;;;23.48;11.43;;;7.10;99.90;;;;;;5038630;28;20412;-76
2022/12/23 11:34:44;;;;;;;25.35;11.43;;;7.10;99.90;;;;;;5055171;28;20032;-75
2022/12/23 11:37:41;;;;;;;34.88;12.15;;;7.10;99.90;;;;;;5040788;28;20045;-76
2022/12/23 11:40:29;;;;;;;26.13;11.40;;;7.10;99.90;;;;;;5068105;28;20026;-75
2022/12/23 11:43:02;;;;;;;45.78;15.20;;;7.20;99.90;;;;;;5040481;28;20263;-75
2022/12/23 11:45:31;;;;;;;26.20;12.05;;;7.20;99.90;;;;;;5053204;28;20275;-75
2022/12/23 11:47:57;;;;;;;32.25;13.48;;;7.20;99.90;;;;;;5030153;28;20087;-76
2022/12/23 11:50:32;;;;;;;25.95;12.68;;;;;;;;;;5023812;28;20037;-75
2022/12/23 11:53:12;;;;;;;32.75;14.50;;;7.20;99.90;;;;;;5028363;28;20071;-75
2022/12/23 11:55:45;;;;;;;35.00;15.10;;;7.20;99.90;;;;;;5025209;28;20256;-76
2022/12/23 11:58:15;;;;;;;;;;;7.20;99.90;;;;;;5052285;28;20036;-75
2022/12/23 12:00:52;;;;;;;29.17;13.25;;;7.30;99.90;;;;;;5040933;28;19951;-76
2022/12/23 12:03:20;;;;;;;30.42;13.88;;;7.20;99.90;;;;;;5040489;28;20049;-75
2022/12/23 12:05:59;;;;;;;33.53;14.48;;;7.20;99.90;;;;;;5031017;28;20054;-76
2022/12/23 12:08:31;;;;;;;35.60;14.95;;;7.20;99.90;;;;;;5032917;28;20044;-74
2022/12/23 12:11:15;;;;;;;39.08;15.07;;;7.50;99.90;;;;;;5044356;28;20542;-76
2022/12/23 12:13:56;;;;;;;37.35;15.52;;;7.20;99.90;;;;;;5048775;28;20033;-75
2022/12/23 12:16:33;;;;;;;35.50;14.68;;;7.20;99.90;;;;;;5039167;28;20560;-75
2022/12/23 12:19:19;;;;;;;31.83;14.85;;;7.90;99.90;;;;;;5041363;28;20424;-74
2022/12/23 12:21:51;;;;;;;36.08;14.90;;;7.30;99.90;;;;;;5037696;28;20045;-75
2022/12/23 12:24:46;;;;;;;34.28;15.13;;;7.30;99.90;;;;;;5036554;28;20037;-75
2022/12/23 12:27:12;;;;;;;41.28;16.80;;;7.30;99.90;;;;;;5044438;28;20123;-75
2022/12/23 12:29:49;;;;;;;34.38;14.23;;;7.30;99.90;;;;;;5027925;28;20037;-75
2022/12/23 12:32:48;;;;;;;35.97;15.45;;;7.30;99.90;;;;;;5040014;28;20454;-75
2022/12/23 12:35:48;;;;;;;38.15;15.10;;;7.30;99.90;;;;;;5031796;28;20049;-75
2022/12/23 12:38:34;;;;;;;40.05;16.38;;;7.30;99.90;;;;;;5039806;28;20098;-75
2022/12/23 12:41:22;;;;;;;37.28;15.02;;;7.30;99.90;;;;;;5038960;28;20410;-76
2022/12/23 12:44:03;;;;;;;36.58;15.05;;;7.30;99.90;;;;;;5039427;28;20080;-76
2022/12/23 12:46:56;;;;;;;29.90;13.98;;;7.30;99.90;;;;;;5041321;28;20041;-75
2022/12/23 12:49:37;;;;;;;32.50;14.13;;;7.30;99.90;;;;;;5029199;28;20801;-76
2022/12/23 12:52:15;;;;;;;32.60;14.75;;;7.30;99.90;;;;;;5024864;28;20117;-74
2022/12/23 12:55:13;;;;;;;34.33;15.98;;;7.30;99.90;;;;;;5025843;28;20033;-76
2022/12/23 12:57:42;;;;;;;37.35;17.05;;;7.80;99.90;;;;;;5043779;28;20052;-74
2022/12/23 13:00:17;;;;;;;34.90;16.95;;;7.30;99.90;;;;;;5050821;28;20053;-75
2022/12/23 13:02:48;;;;;;;33.15;15.70;;;7.30;99.90;;;;;;5059330;28;20041;-75
2022/12/23 13:05:36;;;;;;;37.95;16.20;;;7.30;99.90;;;;;;5021464;28;20048;-75
2022/12/23 13:08:21;;;;;;;37.58;15.02;;;7.30;99.90;;;;;;5027378;28;20303;-75
2022/12/23 13:11:15;;;;;;;32.65;15.23;;;7.30;99.90;;;;;;5043867;28;20065;-75
2022/12/23 13:13:48;;;;;;;39.85;16.45;;;7.40;99.90;;;;;;5025743;28;20040;-76
2022/12/23 13:16:32;;;;;;;40.63;16.90;;;7.40;99.90;;;;;;5043803;28;20044;-75
2022/12/23 13:19:20;;;;;;;40.60;18.13;;;7.40;99.90;;;;;;5042539;28;20041;-75
2022/12/23 13:21:57;;;;;;;46.25;17.90;;;7.40;99.90;;;;;;5058885;28;20030;-75
2022/12/23 13:24:51;;;;;;;39.42;17.75;;;7.40;99.90;;;;;;5040789;28;20052;-76
2022/12/23 13:27:18;;;;;;;44.47;18.10;;;;;;;;;;5037348;28;20067;-76
2022/12/23 13:30:04;;;;;;;51.70;19.90;;;7.40;99.90;;;;;;5039830;28;20045;-75
2022/12/23 13:32:38;;;;;;;38.47;17.70;;;7.40;99.90;;;;;;5041505;28;20029;-77
2022/12/23 13:35:21;;;;;;;44.85;18.65;;;7.40;99.90;;;;;;5054293;28;20491;-75